• Join FlightAware (Why Join?)
  • Login
  • US Flag 
04:02PM EST


 

Airport Tracker/Info


-or-


 

Live Flight TrackerFlight Track Log ✈ SWA387 ✈ 04-Jul-2014 ✈ KSTL - KTPA

Flight Track Log - Related Links

Times and Time Zones

All times are in EDT time to prevent confusion due to time zone crossing. See the SWA387 flight status page for this flight to view local times or setup timezone preferences in your user account.

Time Position Orientation Groundspeed Altitude Reporting Facility
EDT Latitude Longitude Course Direction KTS MPH feet Rate Location/Type
10:06AM 38.7500 -90.4500 247° West 234 269 3,100  Level Gateway (St. Louis) TRACON
10:06AM 38.7064 -90.4503 180° South 259 298 4,400 2,640 Climbing Kansas City Center
10:07AM 38.6317 -90.4628 187° South 274 315 7,400 3,120 Climbing Kansas City Center
10:08AM 38.5486 -90.4794 189° South 300 345 10,800 2,880 Climbing Kansas City Center
10:09AM 38.4528 -90.4975 188° South 348 400 13,400 2,760 Climbing Kansas City Center
10:10AM 38.3492 -90.5172 188° South 369 425 16,400 2,580 Climbing Kansas City Center
10:11AM 38.2431 -90.5378 189° South 381 438 18,800 2,580 Climbing Kansas City Center
10:12AM 38.1108 -90.5625 188° South 397 457 21,800 2,700 Climbing Kansas City Center
10:13AM 37.9936 -90.5789 186° South 417 480 24,300 2,220 Climbing Kansas City Center
10:14AM 37.8747 -90.5911 185° South 422 486 26,500 1,920 Climbing Kansas City Center
10:15AM 37.7525 -90.6039 185° South 432 497 28,300 1,740 Climbing Kansas City Center
10:16AM 37.6314 -90.5683 167° South 454 522 30,100 1,680 Climbing Kansas City Center
10:17AM 37.5292 -90.4731 144° Southeast 460 529 31,800 1,680 Climbing Kansas City Center
10:18AM 37.4250 -90.3742 143° Southeast 466 536 33,600 1,680 Climbing Kansas City Center
10:19AM 37.3019 -90.2572 143° Southeast 466 536 35,400 1,500 Climbing Kansas City Center
10:20AM 37.2011 -90.1539 141° Southeast 466 536 36,700 720 Climbing Kansas City Center
10:22AM 37.0964 -90.0539 143° Southeast 470 541 37,000 480 Climbing Memphis Center
10:23AM 36.9933 -89.9544 142° Southeast 470 541 37,700 960 Climbing Memphis Center
10:24AM 36.8914 -89.8572 143° Southeast 465 535 39,000 600 Climbing Memphis Center
10:25AM 36.7700 -89.7425 143° Southeast 461 531 39,000  Level Memphis Center
10:26AM 36.6686 -89.6469 143° Southeast 459 528 39,000  Level Memphis Center
10:27AM 36.5678 -89.5517 143° Southeast 458 527 39,000  Level Memphis Center
10:28AM 36.4683 -89.4597 143° Southeast 453 521 39,000  Level Memphis Center
10:29AM 36.3728 -89.3717 143° Southeast 453 521 39,000  Level Memphis Center
10:30AM 36.2467 -89.2517 142° Southeast 472 543 39,000  Level Memphis Center
10:31AM 36.1475 -89.1572 142° Southeast 460 529 39,000  Level Memphis Center
10:32AM 36.0475 -89.0636 143° Southeast 459 528 39,000  Level Memphis Center
10:33AM 35.9461 -88.9703 143° Southeast 458 527 39,000  Level Memphis Center
10:34AM 35.8456 -88.8775 143° Southeast 456 525 39,000  Level Memphis Center
10:35AM 35.7444 -88.7839 143° Southeast 455 524 39,000  Level Memphis Center
10:36AM 35.6411 -88.6903 144° Southeast 456 525 39,000  Level Memphis Center
10:37AM 35.5181 -88.5781 143° Southeast 457 526 39,000  Level Memphis Center
10:38AM 35.4156 -88.4847 143° Southeast 457 526 39,000  Level Memphis Center
10:39AM 35.3186 -88.3969 144° Southeast 454 522 39,000  Level Memphis Center
10:40AM 35.2186 -88.3044 143° Southeast 454 522 39,000  Level Memphis Center
10:41AM 35.1164 -88.2147 144° Southeast 454 522 39,000  Level Memphis Center
10:42AM 35.0164 -88.1247 144° Southeast 452 520 39,000  Level Memphis Center
10:43AM 34.9167 -88.0333 143° Southeast 450 518 39,000  Level Memphis Center
10:44AM 34.7953 -87.9264 144° Southeast 450 518 39,000  Level Memphis Center
10:45AM 34.6950 -87.8367 144° Southeast 450 518 39,000  Level Memphis Center
10:46AM 34.5939 -87.7481 144° Southeast 450 518 39,000  Level Memphis Center
10:47AM 34.4847 -87.6519 144° Southeast 449 517 39,000  Level Memphis Center
10:48AM 34.3817 -87.5619 144° Southeast 450 518 39,000  Level Memphis Center
10:49AM 34.2789 -87.4736 145° Southeast 451 519 39,000  Level Memphis Center
10:50AM 34.1786 -87.3844 144° Southeast 450 518 39,000  Level Memphis Center
10:51AM 34.0789 -87.2978 144° Southeast 448 516 39,000  Level Memphis Center
10:52AM 33.9767 -87.2072 144° Southeast 448 516 39,000  Level Memphis Center
10:53AM 33.8761 -87.1203 144° Southeast 447 514 39,000  Level Memphis Center
10:54AM 33.7764 -87.0331 144° Southeast 447 514 39,000  Level Memphis Center
10:55AM 33.6556 -86.9297 145° Southeast 446 513 39,000  Level Memphis Center
10:56AM 33.5564 -86.8450 145° Southeast 444 511 39,000  Level Memphis Center
10:58AM 33.4511 -86.7550 144° Southeast 445 512 39,000  Level Atlanta Center
10:59AM 33.3508 -86.6675 144° Southeast 445 512 39,000  Level Atlanta Center
11:00AM 33.2464 -86.5747 143° Southeast 440 506 39,000  Level Atlanta Center
11:01AM 33.1500 -86.4903 144° Southeast 440 506 39,000  Level Atlanta Center
11:02AM 33.0472 -86.4056 145° Southeast 440 506 39,000  Level Atlanta Center
11:03AM 32.9508 -86.3236 144° Southeast 440 506 39,000  Level Atlanta Center
11:04AM 32.8542 -86.2444 145° Southeast 435 501 39,000  Level Atlanta Center
11:05AM 32.7553 -86.1606 144° Southeast 435 501 39,000  Level Atlanta Center
11:06AM 32.6564 -86.0792 145° Southeast 435 501 39,000  Level Atlanta Center
11:07AM 32.5783 -86.0133 145° Southeast 435 501 39,000  Level Atlanta Center
11:08AM 32.4772 -85.9347 147° Southeast 435 501 39,000  Level Atlanta Center
11:09AM 32.3678 -85.8489 146° Southeast 435 501 39,000  Level Atlanta Center
11:10AM 32.2708 -85.7683 145° Southeast 435 501 39,000  Level Atlanta Center
11:11AM 32.1761 -85.6781 141° Southeast 435 501 39,000  Level Atlanta Center
11:12AM 32.0769 -85.6003 146° Southeast 435 501 39,000  Level Atlanta Center
11:13AM 31.9797 -85.5203 145° Southeast 435 501 39,000  Level Atlanta Center
11:14AM 31.8806 -85.4403 146° Southeast 435 501 39,000  Level Atlanta Center
11:14AM 31.8225 -85.3914 144° Southeast 435 501 39,000  Level Jacksonville Center
11:15AM 31.7217 -85.3106 146° Southeast 435 501 39,000  Level Jacksonville Center
11:16AM 31.6250 -85.2325 145° Southeast 435 501 39,000  Level Jacksonville Center
11:17AM 31.5264 -85.1519 145° Southeast 435 501 39,000  Level Jacksonville Center
11:18AM 31.4272 -85.0839 150° Southeast 429 494 39,000  Level Jacksonville Center
11:19AM 31.3283 -85.0108 148° Southeast 423 487 39,000  Level Jacksonville Center
11:20AM 31.2272 -84.9358 148° Southeast 423 487 39,000  Level Jacksonville Center
11:21AM 31.1261 -84.8608 148° Southeast 423 487 39,000  Level Jacksonville Center
11:22AM 31.0250 -84.7883 148° Southeast 423 487 39,000  Level Jacksonville Center
11:23AM 30.9236 -84.7186 149° Southeast 423 487 39,000  Level Jacksonville Center
11:24AM 30.8225 -84.6439 148° Southeast 423 487 39,000  Level Jacksonville Center
11:25AM 30.7169 -84.5647 147° Southeast 423 487 39,000 -420 Level Jacksonville Center
11:26AM 30.6156 -84.4906 148° Southeast 423 487 38,200 -900 Descending Jacksonville Center
11:27AM 30.5122 -84.4189 149° Southeast 433 498 37,200 -960 Descending Jacksonville Center
11:28AM 30.4064 -84.3450 149° Southeast 433 498 36,300 -960 Descending Jacksonville Center
11:29AM 30.3008 -84.2686 148° Southeast 444 511 35,300 -1,020 Descending Jacksonville Center
11:30AM 30.1931 -84.1928 149° Southeast 449 517 34,300 -960 Descending Jacksonville Center
11:31AM 30.0872 -84.1192 149° Southeast 449 517 33,400 -960 Descending Jacksonville Center
11:32AM 29.9817 -84.0436 148° Southeast 449 517 32,400 -1,020 Descending Jacksonville Center
11:33AM 29.8736 -83.9656 148° Southeast 449 517 31,400 -960 Descending Jacksonville Center
11:34AM 29.7636 -83.8928 150° Southeast 449 517 30,500 -960 Descending Jacksonville Center
11:35AM 29.6639 -83.8200 148° Southeast 457 526 29,500 -1,020 Descending Jacksonville Center
11:36AM 29.5539 -83.7425 148° Southeast 462 532 28,500 -1,020 Descending Jacksonville Center
11:37AM 29.4436 -83.6675 149° Southeast 462 532 27,500 -780 Descending Jacksonville Center
11:38AM 29.3336 -83.5906 149° Southeast 468 539 27,000 -300 Descending Jacksonville Center
11:39AM 29.2275 -83.5161 149° Southeast 463 533 26,900 -540 Descending Jacksonville Center
11:40AM 29.1275 -83.4297 143° Southeast 458 527 26,000 -1,020 Descending Jacksonville Center
11:41AM 29.0297 -83.3414 142° Southeast 453 521 24,900 -1,500 Descending Jacksonville Center
11:42AM 28.9342 -83.2581 143° Southeast 447 514 23,100 -2,100 Descending Jacksonville Center
11:43AM 28.8444 -83.1747 141° Southeast 436 502 20,800 -2,400 Descending Jacksonville Center
11:45AM 28.6667 -83.0667 152° Southeast 390 449 16,700 -2,280 Descending Tampa TRACON
11:46AM 28.5500 -83.0167 159° South 385 443 14,200 -2,100 Descending Tampa TRACON
11:47AM 28.4500 -83.0000 172° South 371 427 12,200 -1,800 Descending Tampa TRACON
11:48AM 28.3833 -82.9167 132° Southeast 327 376 10,500 -1,740 Descending Tampa TRACON
11:49AM 28.3333 -82.8500 130° Southeast 290 334 8,600 -1,980 Descending Tampa TRACON
11:50AM 28.3000 -82.7833 120° Southeast 289 333 7,000 -1,740 Descending Tampa TRACON
11:51AM 28.2500 -82.7000 124° Southeast 284 327 5,500 -960 Descending Tampa TRACON
11:52AM 28.2000 -82.6333 130° Southeast 259 298 5,100 -660 Descending Tampa TRACON
11:53AM 28.1667 -82.5667 120° Southeast 212 244 4,200 -900 Descending Tampa TRACON
11:54AM 28.1333 -82.5333 139° Southeast 193 222 3,400 -1,020 Descending Tampa TRACON
11:55AM 28.1000 -82.5333 180° South 152 175 2,300 -1,080 Descending Tampa TRACON
11:56AM 28.0500 -82.5333 180° South 143 165 1,200 -900 Descending Tampa TRACON
11:57AM 28.0167 -82.5333 180° South 135 155 500 -720 Descending Tampa TRACON
12:00PM 27.9755 -82.5332 North  Level Estimated
12:07PM 27.9755 -82.5332 North  Level Estimated